createdAt,value
2022-08-19T00:02:13.382Z,99835.86
2022-08-19T00:04:47.644Z,99838.97
2022-08-19T00:07:22.349Z,99838.00
2022-08-19T00:09:54.954Z,99834.29
2022-08-19T00:12:30.423Z,99833.98
2022-08-19T00:15:02.863Z,99833.65
2022-08-19T00:17:35.638Z,99835.50
2022-08-19T00:20:11.937Z,99831.79
2022-08-19T00:22:45.470Z,99837.62
2022-08-19T00:25:19.322Z,99833.47
2022-08-19T00:27:53.478Z,99829.63
2022-08-19T00:30:27.074Z,99828.08
2022-08-19T00:33:11.143Z,99835.20
2022-08-19T00:35:43.984Z,99829.89
2022-08-19T00:38:16.435Z,99831.71
2022-08-19T00:40:51.401Z,99828.44
2022-08-19T00:43:26.472Z,99832.06
2022-08-19T00:45:58.862Z,99829.95
2022-08-19T00:48:31.495Z,99831.98
2022-08-19T00:51:03.916Z,99830.94
2022-08-19T00:53:36.609Z,99832.10
2022-08-19T00:56:09.769Z,99839.09
2022-08-19T00:58:42.584Z,99841.13
2022-08-19T01:01:15.575Z,99842.72
2022-08-19T01:03:56.774Z,99850.15
2022-08-19T01:06:22.785Z,99850.58
2022-08-19T01:08:56.540Z,99851.66
2022-08-19T01:11:34.943Z,99850.80
2022-08-19T01:14:07.454Z,99853.98
2022-08-19T01:16:40.728Z,99851.83
2022-08-19T01:19:30.800Z,99854.81
2022-08-19T01:22:32.892Z,99863.22
2022-08-19T01:25:01.259Z,99851.53
2022-08-19T01:27:43.866Z,99853.68
2022-08-19T01:30:23.788Z,99853.80
2022-08-19T01:32:57.563Z,99854.97
2022-08-19T01:35:32.582Z,99847.85
2022-08-19T01:38:11.193Z,99847.98
2022-08-19T01:40:45.024Z,99847.88
2022-08-19T01:43:17.444Z,99845.64
2022-08-19T01:45:49.853Z,99834.38
2022-08-19T01:48:23.064Z,99833.86
2022-08-19T01:50:55.623Z,99826.62
2022-08-19T01:53:33.583Z,99825.36
2022-08-19T01:56:02.681Z,99820.09
2022-08-19T01:58:42.575Z,99819.84
2022-08-19T02:01:15.274Z,99824.66
2022-08-19T02:03:48.594Z,99829.96
2022-08-19T02:06:21.473Z,99823.37
2022-08-19T02:08:57.358Z,99823.46
2022-08-19T02:11:40.613Z,99826.65
2022-08-19T02:14:13.073Z,99826.87
2022-08-19T02:16:46.294Z,99828.67
2022-08-19T02:19:19.114Z,99827.47
2022-08-19T02:21:51.592Z,99834.48
2022-08-19T02:24:23.978Z,99837.47
2022-08-19T02:26:57.622Z,99834.81
2022-08-19T02:29:31.046Z,99844.39
2022-08-19T02:32:03.579Z,99840.69
2022-08-19T02:34:36.609Z,99837.08
2022-08-19T02:37:10.691Z,99841.43
2022-08-19T02:39:43.185Z,99841.52
2022-08-19T02:42:15.705Z,99839.50
2022-08-19T02:44:50.058Z,99846.39
2022-08-19T02:47:22.475Z,99842.48
2022-08-19T02:49:56.408Z,99836.42
2022-08-19T02:52:29.806Z,99845.34
2022-08-19T02:55:02.604Z,99832.59
2022-08-19T02:57:35.508Z,99838.45
2022-08-19T03:00:12.806Z,99836.00
2022-08-19T03:02:45.851Z,99839.83
2022-08-19T03:05:18.401Z,99843.55
2022-08-19T03:07:53.700Z,99843.44
2022-08-19T03:10:26.588Z,99845.77
2022-08-19T03:12:59.793Z,99849.49
2022-08-19T03:15:33.596Z,99852.14
2022-08-19T03:18:06.391Z,99848.21
2022-08-19T03:20:49.982Z,99850.43
2022-08-19T03:23:22.721Z,99846.41
2022-08-19T03:25:58.291Z,99861.05
2022-08-19T03:28:29.892Z,99859.98
2022-08-19T03:31:06.325Z,99864.53
2022-08-19T03:33:41.466Z,99863.08
2022-08-19T03:36:24.317Z,99867.64
2022-08-19T03:39:00.239Z,99863.70
2022-08-19T03:41:45.792Z,99866.47
2022-08-19T03:44:12.740Z,99872.07
2022-08-19T03:46:45.887Z,99868.70
2022-08-19T03:49:19.897Z,99871.98
2022-08-19T03:51:52.573Z,99881.72
2022-08-19T03:54:26.130Z,99881.30
2022-08-19T03:56:58.989Z,99890.22
2022-08-19T03:59:35.552Z,99895.01
2022-08-19T04:02:13.277Z,99885.39
2022-08-19T04:04:46.210Z,99882.27
2022-08-19T04:07:21.556Z,99886.63
2022-08-19T04:09:54.520Z,99884.40
2022-08-19T04:12:27.088Z,99875.66
2022-08-19T04:14:59.615Z,99874.58
2022-08-19T04:17:33.280Z,99876.69
2022-08-19T04:20:07.270Z,99885.07
2022-08-19T04:22:39.912Z,99885.34
2022-08-19T04:25:13.323Z,99889.17
2022-08-19T04:27:47.506Z,99896.82
2022-08-19T04:30:22.199Z,99895.44
2022-08-19T04:32:54.962Z,99892.38
2022-08-19T04:35:27.569Z,99893.75
2022-08-19T04:38:00.150Z,99893.23
2022-08-19T04:40:49.925Z,99901.95
2022-08-19T04:43:24.134Z,99912.97
2022-08-19T04:46:00.853Z,99913.18
2022-08-19T04:48:32.961Z,99914.56
2022-08-19T04:51:11.392Z,99918.10
2022-08-19T04:53:44.128Z,99916.41
2022-08-19T04:56:18.428Z,99915.73
2022-08-19T04:58:52.626Z,99920.22
2022-08-19T05:01:29.404Z,99920.70
2022-08-19T05:04:06.657Z,99918.70
2022-08-19T05:06:40.218Z,99921.03
2022-08-19T05:09:12.808Z,99925.13
2022-08-19T05:11:45.335Z,99917.78
2022-08-19T05:14:17.824Z,99924.34
2022-08-19T05:16:53.573Z,99920.48
2022-08-19T05:19:42.075Z,99926.25
2022-08-19T05:22:32.476Z,99924.05
2022-08-19T05:25:13.790Z,99925.46
2022-08-19T05:27:47.531Z,99919.05
2022-08-19T05:30:24.520Z,99924.41
2022-08-19T05:32:56.560Z,99925.84
2022-08-19T05:35:29.549Z,99929.20
2022-08-19T05:38:03.675Z,99934.00
2022-08-19T05:40:41.130Z,99935.23
2022-08-19T05:43:15.615Z,99941.11
2022-08-19T05:45:48.151Z,99940.98
2022-08-19T05:48:21.673Z,99923.84
2022-08-19T05:50:54.197Z,99923.84
2022-08-19T05:53:27.414Z,99934.86
2022-08-19T05:56:00.397Z,99927.89
2022-08-19T05:58:34.096Z,99939.45
2022-08-19T06:01:28.732Z,99932.89
2022-08-19T06:04:01.107Z,99934.80
2022-08-19T06:06:36.324Z,99928.59
2022-08-19T06:09:12.151Z,99924.48
2022-08-19T06:11:54.099Z,99928.52
2022-08-19T06:14:28.878Z,99928.52
2022-08-19T06:17:06.788Z,99921.56
2022-08-19T06:19:40.926Z,99924.50
2022-08-19T06:22:14.228Z,99927.00
2022-08-19T06:24:47.723Z,99918.55
2022-08-19T06:27:21.322Z,99915.63
2022-08-19T06:29:55.248Z,99920.05
2022-08-19T06:32:28.741Z,99922.23
2022-08-19T06:35:01.784Z,99921.40
2022-08-19T06:37:34.879Z,99926.92
2022-08-19T06:40:09.688Z,99924.08
2022-08-19T06:42:45.221Z,99927.73
2022-08-19T06:45:15.795Z,99921.72
2022-08-19T06:47:49.301Z,99922.67
2022-08-19T06:50:22.091Z,99921.66
2022-08-19T06:52:56.436Z,99925.02
2022-08-19T06:55:31.020Z,99925.16
2022-08-19T06:58:06.504Z,99925.91
2022-08-19T07:00:38.924Z,99924.87
2022-08-19T07:03:13.259Z,99930.55
2022-08-19T07:05:47.325Z,99931.66
2022-08-19T07:08:20.257Z,99941.11
2022-08-19T07:10:52.852Z,99946.91
2022-08-19T07:13:26.626Z,99943.30
2022-08-19T07:15:59.094Z,99933.48
2022-08-19T07:18:32.557Z,99935.53
2022-08-19T07:21:12.148Z,99928.52
2022-08-19T07:23:46.259Z,99927.67
2022-08-19T07:26:42.241Z,99928.65
2022-08-19T07:29:17.098Z,99929.19
2022-08-19T07:31:52.137Z,99925.51
2022-08-19T07:34:26.477Z,99912.25
2022-08-19T07:36:58.986Z,99916.31
2022-08-19T07:39:34.615Z,99918.07
2022-08-19T07:42:11.086Z,99918.78
2022-08-19T07:44:55.125Z,99918.68
2022-08-19T07:47:48.122Z,99925.52
2022-08-19T07:50:05.810Z,99924.45
2022-08-19T07:52:40.797Z,99925.42
2022-08-19T07:55:40.126Z,99923.53
2022-08-19T07:57:48.869Z,99929.67
2022-08-19T08:00:23.926Z,99928.56
2022-08-19T08:02:56.441Z,99931.63
2022-08-19T08:05:46.819Z,99927.94
2022-08-19T08:08:27.652Z,99935.98
2022-08-19T08:10:59.309Z,99930.63
2022-08-19T08:13:31.718Z,99940.89
2022-08-19T08:16:04.801Z,99929.84
2022-08-19T08:18:40.861Z,99936.73
2022-08-19T08:21:13.437Z,99937.72
2022-08-19T08:23:45.964Z,99936.66
2022-08-19T08:26:19.376Z,99939.27
2022-08-19T08:28:52.127Z,99941.13
2022-08-19T08:31:24.712Z,99952.20
2022-08-19T08:33:58.173Z,99944.98
2022-08-19T08:36:33.524Z,99945.33
2022-08-19T08:39:05.996Z,99953.54
2022-08-19T08:42:17.804Z,99958.06
2022-08-19T08:47:33.721Z,99956.75
2022-08-19T08:50:16.941Z,99948.20
2022-08-19T08:52:53.270Z,99957.22
2022-08-19T08:55:37.116Z,99950.24
2022-08-19T08:58:29.541Z,99953.69
2022-08-19T09:01:02.098Z,99955.34
2022-08-19T09:03:34.577Z,99955.08
2022-08-19T09:06:18.375Z,99953.34
2022-08-19T09:09:12.125Z,99947.72
2022-08-19T09:12:14.947Z,99947.17
2022-08-19T09:14:55.361Z,99948.08
2022-08-19T09:17:32.333Z,99944.41
2022-08-19T09:20:10.526Z,99948.08
2022-08-19T09:22:47.906Z,99961.27
2022-08-19T09:25:26.629Z,99959.28
2022-08-19T09:28:02.734Z,99957.05
2022-08-19T09:30:43.210Z,99963.22
2022-08-19T09:33:17.238Z,99959.56
2022-08-19T09:35:53.270Z,99962.67
2022-08-19T09:38:24.760Z,99972.20
2022-08-19T09:40:58.757Z,99972.42
2022-08-19T09:43:33.868Z,99974.95
2022-08-19T09:46:10.498Z,99975.56
2022-08-19T09:48:43.696Z,99968.22
2022-08-19T09:51:18.698Z,99970.15
2022-08-19T09:53:54.734Z,99974.34
2022-08-19T09:56:28.328Z,99971.45
2022-08-19T09:59:02.608Z,99965.23
2022-08-19T10:01:35.774Z,99966.05
2022-08-19T10:04:19.982Z,99974.83
2022-08-19T10:06:47.013Z,99975.58
2022-08-19T10:09:26.161Z,99975.45
2022-08-19T10:11:55.225Z,99980.33
2022-08-19T10:14:28.747Z,99981.40
2022-08-19T10:17:01.951Z,99980.19
2022-08-19T10:19:37.418Z,99980.86
2022-08-19T10:22:10.116Z,99980.24
2022-08-19T10:24:44.577Z,99974.55
2022-08-19T10:27:17.020Z,99979.27
2022-08-19T10:29:49.392Z,99978.05
2022-08-19T10:32:33.807Z,99992.74
2022-08-19T10:34:58.544Z,99980.20
2022-08-19T10:37:32.485Z,99975.45
2022-08-19T10:40:06.056Z,99982.09
2022-08-19T10:42:39.369Z,99982.80
2022-08-19T10:45:12.521Z,99989.20
2022-08-19T10:47:45.065Z,99989.45
2022-08-19T10:50:36.736Z,99983.05
2022-08-19T10:53:11.565Z,99995.31
2022-08-19T10:56:04.297Z,99986.27
2022-08-19T10:58:36.840Z,99997.05
2022-08-19T11:01:09.667Z,99994.44
2022-08-19T11:03:42.528Z,100000.97
2022-08-19T11:06:15.687Z,100010.91
2022-08-19T11:08:48.559Z,100002.65
2022-08-19T11:11:21.520Z,100002.96
2022-08-19T11:13:54.188Z,100001.88
2022-08-19T11:16:29.910Z,100009.78
2022-08-19T11:19:04.127Z,100006.97
2022-08-19T11:21:43.166Z,100004.79
2022-08-19T11:24:19.317Z,100001.19
2022-08-19T11:26:56.643Z,100000.41
2022-08-19T11:29:29.279Z,99998.23
2022-08-19T11:32:03.833Z,100006.98
2022-08-19T11:34:38.794Z,100005.04
2022-08-19T11:37:14.654Z,99995.17
2022-08-19T11:39:53.301Z,99994.98
2022-08-19T11:42:40.090Z,99999.39
2022-08-19T11:45:13.756Z,99997.23
2022-08-19T11:47:47.274Z,99997.01
2022-08-19T11:50:20.177Z,99996.25
2022-08-19T11:52:55.249Z,99999.00
2022-08-19T11:55:27.835Z,99999.53
2022-08-19T11:58:00.813Z,100000.49
2022-08-19T12:00:36.685Z,100007.88
2022-08-19T12:03:09.712Z,100006.98
2022-08-19T12:05:42.954Z,100006.78
2022-08-19T12:08:16.509Z,100017.84
2022-08-19T12:10:49.898Z,100015.14
2022-08-19T12:13:22.546Z,100013.14
2022-08-19T12:15:55.860Z,100013.14
2022-08-19T12:18:28.473Z,100016.66
2022-08-19T12:21:01.695Z,100026.08
2022-08-19T12:23:34.903Z,100023.22
2022-08-19T12:26:07.522Z,100022.97
2022-08-19T12:28:40.782Z,100019.48
2022-08-19T12:31:13.281Z,100021.58
2022-08-19T12:33:46.854Z,100018.36
2022-08-19T12:36:19.349Z,100016.52
2022-08-19T12:38:52.863Z,100022.41
2022-08-19T12:41:25.531Z,100015.34
2022-08-19T12:43:59.410Z,100028.50
2022-08-19T12:46:33.833Z,100018.03
2022-08-19T12:49:20.675Z,100022.28
2022-08-19T12:51:41.275Z,100030.03
2022-08-19T12:54:14.206Z,100033.28
2022-08-19T12:56:47.651Z,100039.38
2022-08-19T12:59:21.937Z,100039.78
2022-08-19T13:01:54.695Z,100045.48
2022-08-19T13:04:27.394Z,100045.20
2022-08-19T13:07:00.486Z,100052.79
2022-08-19T13:09:33.687Z,100049.66
2022-08-19T13:12:09.529Z,100045.50
2022-08-19T13:14:43.553Z,100042.47
2022-08-19T13:17:16.589Z,100041.94
2022-08-19T13:19:50.430Z,100042.27
2022-08-19T13:22:23.149Z,100044.64
2022-08-19T13:24:55.762Z,100039.95
2022-08-19T13:27:28.145Z,100037.80
2022-08-19T13:30:18.499Z,100036.23
2022-08-19T13:33:09.131Z,100033.33
2022-08-19T13:35:51.104Z,100039.80
2022-08-19T13:38:24.088Z,100037.18
2022-08-19T13:40:58.002Z,100039.95
2022-08-19T13:43:31.297Z,100044.11
2022-08-19T13:46:08.067Z,100045.62
2022-08-19T13:48:42.213Z,100046.54
2022-08-19T13:51:18.148Z,100050.86
2022-08-19T13:53:51.739Z,100057.98
2022-08-19T13:56:26.744Z,100052.59
2022-08-19T13:58:59.342Z,100044.66
2022-08-19T14:01:32.199Z,100048.02
2022-08-19T14:04:06.480Z,100047.05
2022-08-19T14:06:40.183Z,100044.34
2022-08-19T14:09:13.591Z,100044.25
2022-08-19T14:11:48.234Z,100045.48
2022-08-19T14:14:20.619Z,100045.16
2022-08-19T14:16:53.267Z,100043.23
2022-08-19T14:19:26.156Z,100044.23
2022-08-19T14:22:01.874Z,100045.50
2022-08-19T14:24:34.737Z,100047.95
2022-08-19T14:27:08.766Z,100047.47
2022-08-19T14:29:42.857Z,100042.53
2022-08-19T14:32:16.882Z,100039.76
2022-08-19T14:34:49.970Z,100033.16
2022-08-19T14:37:24.302Z,100037.92
2022-08-19T14:39:57.368Z,100033.59
2022-08-19T14:42:29.844Z,100030.30
2022-08-19T14:45:02.831Z,100027.07
2022-08-19T14:47:35.665Z,100028.37
2022-08-19T14:50:17.927Z,100023.75
2022-08-19T14:52:46.497Z,100019.91
2022-08-19T14:55:19.520Z,100020.34
2022-08-19T14:57:52.393Z,100024.86
2022-08-19T15:00:25.155Z,100028.31
2022-08-19T15:02:59.124Z,100027.72
2022-08-19T15:05:32.631Z,100023.08
2022-08-19T15:08:08.919Z,100030.31
2022-08-19T15:10:42.699Z,100023.76
2022-08-19T15:13:15.889Z,100027.52
2022-08-19T15:15:50.041Z,100027.66
2022-08-19T15:18:22.868Z,100031.19
2022-08-19T15:20:57.165Z,100036.88
2022-08-19T15:23:29.669Z,100034.64
2022-08-19T15:26:03.012Z,100044.15
2022-08-19T15:28:36.131Z,100039.91
2022-08-19T15:31:09.629Z,100039.69
2022-08-19T15:33:45.400Z,100038.38
2022-08-19T15:36:18.906Z,100036.24
2022-08-19T15:38:53.436Z,100041.79
2022-08-19T15:41:30.859Z,100042.98
2022-08-19T15:44:10.497Z,100041.30
2022-08-19T15:46:44.793Z,100049.20
2022-08-19T15:49:19.102Z,100054.97
2022-08-19T15:51:54.422Z,100053.50
2022-08-19T15:54:27.486Z,100058.97
2022-08-19T15:57:17.359Z,100061.02
2022-08-19T16:00:08.298Z,100065.06
2022-08-19T16:03:00.223Z,100065.95
2022-08-19T16:05:50.966Z,100065.82
2022-08-19T16:08:24.458Z,100065.96
2022-08-19T16:10:57.488Z,100073.55
2022-08-19T16:13:30.057Z,100073.77
2022-08-19T16:16:02.706Z,100077.61
2022-08-19T16:18:37.478Z,100078.28
2022-08-19T16:21:09.456Z,100083.70
2022-08-19T16:23:42.165Z,100077.69
2022-08-19T16:26:16.747Z,100081.69
2022-08-19T16:28:49.609Z,100084.37
2022-08-19T16:31:24.152Z,100085.13
2022-08-19T16:33:57.039Z,100084.81
2022-08-19T16:36:31.558Z,100088.20
2022-08-19T16:39:04.516Z,100093.20
2022-08-19T16:41:38.157Z,100091.65
2022-08-19T16:44:12.339Z,100092.27
2022-08-19T16:46:58.422Z,100087.78
2022-08-19T16:49:54.190Z,100082.24
2022-08-19T16:52:01.883Z,100086.17
2022-08-19T16:54:35.992Z,100088.12
2022-08-19T16:57:08.894Z,100090.88
2022-08-19T16:59:48.829Z,100094.17
2022-08-19T17:02:22.066Z,100103.00
2022-08-19T17:04:58.741Z,100098.97
2022-08-19T17:07:33.080Z,100104.94
2022-08-19T17:10:05.827Z,100107.53
2022-08-19T17:12:39.721Z,100108.70
2022-08-19T17:15:12.650Z,100113.92
2022-08-19T17:17:45.396Z,100109.34
2022-08-19T17:20:17.754Z,100103.62
2022-08-19T17:22:50.837Z,100113.53
2022-08-19T17:25:26.689Z,100107.91
2022-08-19T17:28:00.041Z,100105.35
2022-08-19T17:30:32.637Z,100116.29
2022-08-19T17:33:06.123Z,100118.53
2022-08-19T17:35:40.949Z,100114.08
2022-08-19T17:38:19.560Z,100112.36
2022-08-19T17:40:53.090Z,100120.66
2022-08-19T17:43:32.569Z,100129.38
2022-08-19T17:46:03.454Z,100125.44
2022-08-19T17:48:38.288Z,100128.11
2022-08-19T17:51:22.548Z,100125.77
2022-08-19T17:53:55.487Z,100130.35
2022-08-19T17:56:28.908Z,100134.00
2022-08-19T17:59:01.808Z,100139.20
2022-08-19T18:01:52.335Z,100132.28
2022-08-19T18:04:10.007Z,100139.58
2022-08-19T18:06:46.636Z,100132.88
2022-08-19T18:09:17.998Z,100130.44
2022-08-19T18:11:53.859Z,100137.25
2022-08-19T18:14:33.763Z,100139.36
2022-08-19T18:17:09.116Z,100130.67
2022-08-19T18:19:44.138Z,100127.04
2022-08-19T18:22:30.689Z,100126.60
2022-08-19T18:25:04.694Z,100128.23
2022-08-19T18:27:38.805Z,100130.66
2022-08-19T18:30:12.775Z,100134.67
2022-08-19T18:32:47.308Z,100136.16
2022-08-19T18:35:26.374Z,100137.86
2022-08-19T18:38:01.774Z,100133.16
2022-08-19T18:40:53.582Z,100126.16
2022-08-19T18:43:44.194Z,100121.36
2022-08-19T18:46:36.818Z,100122.84
2022-08-19T18:49:11.065Z,100116.36
2022-08-19T18:51:43.631Z,100119.13
2022-08-19T18:54:16.004Z,100119.13
2022-08-19T18:56:48.355Z,100107.66
2022-08-19T18:59:27.149Z,100107.32
2022-08-19T19:02:00.872Z,100108.18
2022-08-19T19:04:37.457Z,100100.76
2022-08-19T19:07:11.488Z,100098.31
2022-08-19T19:09:44.488Z,100096.82
2022-08-19T19:12:18.849Z,100090.98
2022-08-19T19:14:52.330Z,100087.28
2022-08-19T19:17:26.906Z,100085.48
2022-08-19T19:19:59.480Z,100082.83
2022-08-19T19:22:32.049Z,100075.17
2022-08-19T19:25:05.857Z,100065.83
2022-08-19T19:27:40.613Z,100061.86
2022-08-19T19:30:14.088Z,100059.42
2022-08-19T19:32:47.280Z,100059.84
2022-08-19T19:35:19.653Z,100054.49
2022-08-19T19:37:52.926Z,100057.77
2022-08-19T19:40:26.794Z,100051.42
2022-08-19T19:43:00.356Z,100054.05
2022-08-19T19:45:34.657Z,100053.42
2022-08-19T19:48:09.636Z,100052.88
2022-08-19T19:50:42.677Z,100054.59
2022-08-19T19:53:18.346Z,100051.55
2022-08-19T19:55:52.975Z,100055.48
2022-08-19T19:58:28.717Z,100050.27
2022-08-19T20:01:01.413Z,100049.23
2022-08-19T20:03:37.637Z,100054.83
2022-08-19T20:06:11.561Z,100052.80
2022-08-19T20:09:02.044Z,100054.05
2022-08-19T20:11:50.150Z,100055.02
2022-08-19T20:14:27.819Z,100058.09
2022-08-19T20:17:00.780Z,100046.91
2022-08-19T20:19:36.282Z,100048.94
2022-08-19T20:22:09.102Z,100041.18
2022-08-19T20:24:42.842Z,100041.31
2022-08-19T20:27:15.450Z,100046.63
2022-08-19T20:29:49.640Z,100045.11
2022-08-19T20:32:23.713Z,100039.17
2022-08-19T20:34:56.116Z,100046.08
2022-08-19T20:37:28.724Z,100039.28
2022-08-19T20:40:01.153Z,100045.22
2022-08-19T20:42:35.241Z,100051.46
2022-08-19T20:45:09.866Z,100048.50
2022-08-19T20:47:44.684Z,100049.77
2022-08-19T20:50:17.974Z,100045.63
2022-08-19T20:52:53.701Z,100043.59
2022-08-19T20:55:25.328Z,100042.73
2022-08-19T20:57:58.797Z,100050.39
2022-08-19T21:00:31.401Z,100048.50
2022-08-19T21:03:04.029Z,100049.15
2022-08-19T21:05:38.231Z,100038.19
2022-08-19T21:08:11.049Z,100036.91
2022-08-19T21:10:44.783Z,100030.73
2022-08-19T21:13:18.390Z,100029.91
2022-08-19T21:15:51.619Z,100027.45
2022-08-19T21:18:26.874Z,100027.45
2022-08-19T21:20:59.339Z,100029.14
2022-08-19T21:23:33.123Z,100025.62
2022-08-19T21:26:07.575Z,100019.30
2022-08-19T21:28:39.991Z,100020.88
2022-08-19T21:31:13.639Z,100020.83
2022-08-19T21:33:47.071Z,100014.24
2022-08-19T21:36:19.658Z,100018.12
2022-08-19T21:38:52.205Z,100013.42
2022-08-19T21:41:24.712Z,100011.89
2022-08-19T21:43:57.173Z,100018.62
2022-08-19T21:46:32.562Z,100021.06
2022-08-19T21:49:05.453Z,100020.41
2022-08-19T21:51:38.617Z,100019.77
2022-08-19T21:54:14.019Z,100021.75
2022-08-19T21:56:45.697Z,100023.02
2022-08-19T21:59:18.228Z,100020.87
2022-08-19T22:02:05.704Z,100019.83
2022-08-19T22:04:26.731Z,100020.00
2022-08-19T22:06:59.391Z,100025.31
2022-08-19T22:09:31.978Z,100015.88
2022-08-19T22:12:05.462Z,100012.45
2022-08-19T22:15:00.074Z,100018.36
2022-08-19T22:17:32.892Z,100027.69
2022-08-19T22:20:10.249Z,100017.79
2022-08-19T22:22:49.461Z,100016.76
2022-08-19T22:25:46.687Z,100019.36
2022-08-19T22:28:27.556Z,100029.95
2022-08-19T22:30:54.289Z,100023.27
2022-08-19T22:33:29.014Z,100023.51
2022-08-19T22:36:02.597Z,100023.56
2022-08-19T22:38:35.880Z,100021.15
2022-08-19T22:41:08.454Z,100024.73
2022-08-19T22:43:41.479Z,100027.05
2022-08-19T22:46:16.930Z,100025.56
2022-08-19T22:48:48.460Z,100024.50
2022-08-19T22:51:40.752Z,100028.55
2022-08-19T22:54:13.672Z,100032.05
2022-08-19T22:56:47.501Z,100029.89
2022-08-19T22:59:20.330Z,100027.58
2022-08-19T23:01:55.012Z,100032.84
2022-08-19T23:04:31.118Z,100034.80
2022-08-19T23:07:03.568Z,100045.15
2022-08-19T23:09:36.020Z,100044.00
2022-08-19T23:12:11.049Z,100044.71
2022-08-19T23:14:44.731Z,100045.77
2022-08-19T23:17:17.652Z,100045.97
2022-08-19T23:19:53.674Z,100040.11
2022-08-19T23:22:27.136Z,100042.35
2022-08-19T23:25:07.077Z,100049.70
2022-08-19T23:27:58.289Z,100049.70
2022-08-19T23:30:31.484Z,100046.75
2022-08-19T23:33:12.918Z,100051.83
2022-08-19T23:35:44.835Z,100051.05
2022-08-19T23:38:19.670Z,100046.21
2022-08-19T23:40:53.547Z,100045.08
2022-08-19T23:43:28.692Z,100042.91
2022-08-19T23:46:10.418Z,100041.45
2022-08-19T23:48:39.897Z,100040.63
2022-08-19T23:51:13.064Z,100041.06
2022-08-19T23:53:45.586Z,100044.36
2022-08-19T23:56:18.510Z,100043.38
2022-08-19T23:58:51.149Z,100043.11
